Flight Track Log - Related Links

Times and Time Zones

All times are in EDT time to prevent confusion due to time zone crossing. See the SWA2093 flight status page for this flight to view local times or setup timezone preferences in your user account.

Time Position Orientation Groundspeed Altitude Reporting Facility
EDT Latitude Longitude Course Direction KTS MPH feet Rate Location/Type
Sat 01:38:13 PM 39.6833 -86.3500 237° Southwest 180 207 2,500  Level Indianapolis TRACON
Sat 01:39:13 PM 39.6667 -86.4167 252° West 236 272 5,100 3,071 Climbing Indianapolis TRACON
Sat 01:40:20 PM 39.6425 -86.5042 250° West 230 265 9,000 2,605 Climbing Indianapolis Center
Sat 01:41:22 PM 39.6278 -86.5831 256° West 223 257 10,700 1,805 Climbing Indianapolis Center
Sat 01:42:23 PM 39.6292 -86.6889 271° West 255 293 12,700 2,262 Climbing Indianapolis Center
Sat 01:43:00 PM 39.5267 -87.0436 252° West  Level FlightAware Approximate
Sat 01:43:24 PM 39.6269 -86.8028 269° West 284 327 15,300  Level Indianapolis Center
Sat 01:44:26 PM 39.6267 -86.9164 270° West 301 346 17,800 2,146 Climbing Indianapolis Center
Sat 01:45:27 PM 39.6253 -87.0311 269° West 309 356 19,700 1,951 Climbing Indianapolis Center
Sat 01:46:29 PM 39.6222 -87.1469 268° West 319 367 21,800 1,463 Climbing Indianapolis Center
Sat 01:47:30 PM 39.6214 -87.2639 270° West 322 371 22,700 1,279 Climbing Indianapolis Center
Sat 01:48:31 PM 39.6200 -87.4167 269° West 346 398 24,400 1,902 Climbing Indianapolis Center
Sat 01:49:33 PM 39.6172 -87.5400 268° West 344 396 26,600 1,756 Climbing Indianapolis Center
Sat 01:50:34 PM 39.6150 -87.6564 269° West 329 379 28,000 1,268 Climbing Indianapolis Center
Sat 01:51:36 PM 39.6133 -87.7742 269° West 327 376 29,200 1,073 Climbing Indianapolis Center
Sat 01:52:37 PM 39.6114 -87.8922 269° West 326 375 30,200 928 Climbing Indianapolis Center
Sat 01:53:13 PM 39.6097 -87.9683 268° West 331 381 30,700 960 Climbing Kansas City Center
Sat 01:54:17 PM 39.6067 -88.0883 268° West 332 382 31,800 629 Climbing Kansas City Center
Sat 01:55:17 PM 39.6047 -88.2072 269° West 331 381 32,000 793 Climbing Kansas City Center
Sat 01:56:18 PM 39.6017 -88.3281 268° West 333 383 33,400 952 Climbing Kansas City Center
Sat 01:57:23 PM 39.5981 -88.4439 268° West 327 376 34,000 288 Climbing Kansas City Center
Sat 01:58:23 PM 39.5947 -88.5761 268° West 329 379 34,000  Level Kansas City Center
Sat 01:59:26 PM 39.5928 -88.6981 269° West 338 389 34,000  Level Kansas City Center
Sat 02:00:27 PM 39.5892 -88.8219 268° West 341 392 34,000  Level Kansas City Center
Sat 02:01:28 PM 39.5858 -88.9447 268° West 342 394 34,000  Level Kansas City Center
Sat 02:02:31 PM 39.5819 -89.0689 268° West 343 395 34,000  Level Kansas City Center
Sat 02:03:32 PM 39.5781 -89.2164 268° West 342 394 34,000  Level Kansas City Center
Sat 02:04:35 PM 39.5750 -89.3306 268° West 342 394 34,000  Level Kansas City Center
Sat 02:05:35 PM 39.5706 -89.4531 267° West 342 394 34,000  Level Kansas City Center
Sat 02:06:39 PM 39.5669 -89.5764 268° West 342 394 34,000  Level Kansas City Center
Sat 02:07:40 PM 39.5631 -89.7256 268° West 346 398 34,000  Level Kansas City Center
Sat 02:08:42 PM 39.5578 -89.8478 267° West 344 396 34,000  Level Kansas City Center
Sat 02:09:43 PM 39.5539 -89.9725 268° West 346 398 34,000  Level Kansas City Center
Sat 02:10:46 PM 39.5494 -90.0972 267° West 349 402 34,000  Level Kansas City Center
Sat 02:11:47 PM 39.5450 -90.2208 267° West 347 399 34,000  Level Kansas City Center
Sat 02:12:51 PM 39.5408 -90.3458 268° West 348 400 34,000  Level Kansas City Center
Sat 02:13:51 PM 39.5339 -90.4958 267° West 350 403 34,000  Level Kansas City Center
Sat 02:14:52 PM 39.5294 -90.6206 267° West 350 403 34,000  Level Kansas City Center
Sat 02:15:53 PM 39.5236 -90.7461 267° West 350 403 34,000  Level Kansas City Center
Sat 02:16:57 PM 39.5183 -90.8700 267° West 348 400 34,000  Level Kansas City Center
Sat 02:17:57 PM 39.5136 -90.9961 267° West 351 404 34,000  Level Kansas City Center
Sat 02:19:01 PM 39.5072 -91.1208 266° West 350 403 34,000  Level Kansas City Center
Sat 02:20:01 PM 39.5008 -91.2694 267° West 349 402 34,000  Level Kansas City Center
Sat 02:21:01 PM 39.4942 -91.3967 266° West 352 405 34,000  Level Kansas City Center
Sat 02:22:05 PM 39.4883 -91.5217 267° West 351 404 34,000  Level Kansas City Center
Sat 02:23:06 PM 39.4819 -91.6469 266° West 350 403 34,000  Level Kansas City Center
Sat 02:24:07 PM 39.4758 -91.7717 266° West 352 405 34,000  Level Kansas City Center
Sat 02:25:09 PM 39.4697 -91.8964 266° West 350 403 34,000  Level Kansas City Center
Sat 02:26:12 PM 39.4619 -92.0483 266° West 353 406 34,000  Level Kansas City Center
Sat 02:27:13 PM 39.4553 -92.1722 266° West 350 403 34,000  Level Kansas City Center
Sat 02:28:13 PM 39.4475 -92.3006 266° West 355 409 34,000  Level Kansas City Center
Sat 02:29:17 PM 39.4411 -92.4275 266° West 356 410 34,000  Level Kansas City Center
Sat 02:30:18 PM 39.4333 -92.5553 266° West 356 410 34,000  Level Kansas City Center
Sat 02:31:19 PM 39.4256 -92.6822 266° West 356 410 34,000  Level Kansas City Center
Sat 02:32:20 PM 39.4183 -92.8111 266° West 359 413 34,000  Level Kansas City Center
Sat 02:33:24 PM 39.4081 -92.9669 265° West 363 418 34,000  Level Kansas City Center
Sat 02:34:24 PM 39.4000 -93.0964 265° West 362 417 34,000  Level Kansas City Center
Sat 02:35:25 PM 39.3917 -93.2286 265° West 368 423 34,000  Level Kansas City Center
Sat 02:36:27 PM 39.3833 -93.3603 265° West 369 425 34,000  Level Kansas City Center
Sat 02:37:30 PM 39.3739 -93.4911 265° West 368 423 34,000  Level Kansas City Center
Sat 02:38:31 PM 39.3636 -93.6225 264° West 370 426 34,000  Level Kansas City Center
Sat 02:39:31 PM 39.3567 -93.7692 267° West 373 429 34,000  Level Kansas City Center
Sat 02:40:35 PM 39.3453 -93.9186 264° West 375 432 34,000  Level Kansas City Center
Sat 02:41:36 PM 39.3361 -94.0472 265° West 375 432 34,000  Level Kansas City Center
Sat 02:42:37 PM 39.3272 -94.1767 265° West 377 434 34,000  Level Kansas City Center
Sat 02:43:40 PM 39.3164 -94.3286 265° West 381 438 34,000  Level Kansas City Center
Sat 02:44:41 PM 39.3067 -94.4589 265° West 382 440 34,000  Level Kansas City Center
Sat 02:45:42 PM 39.2958 -94.6111 265° West 382 440 34,000  Level Kansas City Center
Sat 02:46:46 PM 39.2844 -94.7414 264° West 382 440 34,000  Level Kansas City Center
Sat 02:47:47 PM 39.2664 -94.8967 262° West 395 455 34,000  Level Kansas City Center
Sat 02:48:48 PM 39.2522 -95.0275 262° West 387 445 34,000  Level Kansas City Center
Sat 02:49:49 PM 39.2350 -95.1717 261° West 388 447 34,000  Level Kansas City Center
Sat 02:50:53 PM 39.2183 -95.3194 262° West 387 445 34,000  Level Kansas City Center
Sat 02:51:53 PM 39.2022 -95.4564 261° West 386 444 34,000  Level Kansas City Center
Sat 02:52:54 PM 39.1867 -95.5883 261° West 392 451 34,000  Level Kansas City Center
Sat 02:53:57 PM 39.1675 -95.7428 261° West 391 450 34,000  Level Kansas City Center
Sat 02:54:58 PM 39.1514 -95.8781 261° West 398 458 34,000  Level Kansas City Center
Sat 02:55:59 PM 39.1319 -96.0339 261° West 396 456 34,000  Level Kansas City Center
Sat 02:57:03 PM 39.1156 -96.1686 261° West 397 457 34,000  Level Kansas City Center
Sat 02:58:04 PM 39.0983 -96.3039 261° West 400 460 34,000  Level Kansas City Center
Sat 02:59:04 PM 39.0650 -96.4569 254° West 403 464 34,000  Level Kansas City Center
Sat 03:00:06 PM 39.0294 -96.5853 250° West 398 458 34,000  Level Kansas City Center
Sat 03:01:09 PM 38.9886 -96.7375 251° West 403 464 34,000  Level Kansas City Center
Sat 03:02:10 PM 38.9533 -96.8822 253° West 406 467 34,000  Level Kansas City Center
Sat 03:03:13 PM 38.9175 -97.0175 251° West 402 463 34,000  Level Kansas City Center
Sat 03:04:13 PM 38.8819 -97.1536 251° West 402 463 34,000  Level Kansas City Center
Sat 03:05:16 PM 38.8453 -97.2881 251° West 401 461 34,000  Level Kansas City Center
Sat 03:06:17 PM 38.8083 -97.4231 251° West 402 463 34,000  Level Kansas City Center
Sat 03:07:17 PM 38.7722 -97.5614 252° West 398 458 34,000  Level Kansas City Center
Sat 03:08:21 PM 38.7306 -97.7108 250° West 399 459 34,000  Level Kansas City Center
Sat 03:09:21 PM 38.6928 -97.8519 251° West 402 463 34,000  Level Kansas City Center
Sat 03:10:25 PM 38.6547 -97.9858 250° West 403 464 34,000  Level Kansas City Center
Sat 03:11:25 PM 38.6181 -98.1189 251° West 401 461 34,000  Level Kansas City Center
Sat 03:12:29 PM 38.5811 -98.2533 251° West 402 463 34,000  Level Kansas City Center
Sat 03:13:29 PM 38.5433 -98.3872 250° West 403 464 34,000  Level Kansas City Center
Sat 03:14:30 PM 38.5053 -98.5203 250° West 402 463 34,000  Level Kansas City Center
Sat 03:15:33 PM 38.4689 -98.6547 251° West 402 463 34,000  Level Kansas City Center
Sat 03:16:35 PM 38.4219 -98.8161 250° West 405 466 34,000  Level Kansas City Center
Sat 03:17:36 PM 38.3825 -98.9517 250° West 408 470 34,000  Level Kansas City Center
Sat 03:18:37 PM 38.3444 -99.0881 250° West 409 471 34,000  Level Kansas City Center
Sat 03:19:42 PM 38.3047 -99.2236 250° West 409 471 34,000  Level Kansas City Center
Sat 03:20:42 PM 38.2658 -99.3594 250° West 409 471 34,000  Level Kansas City Center
Sat 03:21:43 PM 38.2194 -99.5111 249° West 409 471 34,000  Level Kansas City Center
Sat 03:22:45 PM 38.1828 -99.6417 250° West 410 472 34,000  Level Kansas City Center
Sat 03:23:45 PM 38.1392 -99.7925 250° West 409 471 34,000  Level Kansas City Center
Sat 03:24:49 PM 38.1006 -99.9233 249° West 412 474 34,000  Level Kansas City Center
Sat 03:25:50 PM 38.0553 -100.0753 249° West 413 475 34,000  Level Kansas City Center
Sat 03:26:50 PM 38.0150 -100.2050 249° West 413 475 34,000  Level Kansas City Center
Sat 03:27:52 PM 37.9697 -100.3581 249° West 415 478 34,000  Level Kansas City Center
Sat 03:28:56 PM 37.9297 -100.4883 249° West 416 479 34,000  Level Kansas City Center
Sat 03:29:56 PM 37.8836 -100.6397 249° West 414 476 34,000  Level Kansas City Center
Sat 03:30:57 PM 37.8439 -100.7683 249° West 414 476 34,000  Level Kansas City Center
Sat 03:32:01 PM 37.7969 -100.9172 248° West 414 476 34,000  Level Kansas City Center
Sat 03:33:02 PM 37.7578 -101.0436 249° West 413 475 34,000  Level Kansas City Center
Sat 03:34:02 PM 37.7117 -101.1925 249° West 413 475 34,000  Level Kansas City Center
Sat 03:35:07 PM 37.6717 -101.3208 249° West 412 474 34,000  Level Kansas City Center
Sat 03:36:07 PM 37.6247 -101.4706 248° West 411 473 34,000  Level Kansas City Center
Sat 03:37:09 PM 37.5844 -101.5989 248° West 413 475 34,000  Level Kansas City Center
Sat 03:38:09 PM 37.5442 -101.7264 248° West 411 473 34,000  Level Kansas City Center
Sat 03:39:11 PM 37.4958 -101.8767 248° West 414 476 34,000  Level Kansas City Center
Sat 03:39:28 PM 37.4836 -101.9211 251° West 414 476 34,000  Level Albuquerque Center
Sat 03:40:29 PM 37.4422 -102.0497 248° West 415 478 34,000  Level Albuquerque Center
Sat 03:41:31 PM 37.3972 -102.1928 248° West 414 476 34,000  Level Albuquerque Center
Sat 03:42:33 PM 37.3558 -102.3217 248° West 414 476 34,000  Level Albuquerque Center
Sat 03:43:34 PM 37.3081 -102.4714 248° West 414 476 34,000  Level Albuquerque Center
Sat 03:44:36 PM 37.2656 -102.6003 248° West 415 478 34,000  Level Albuquerque Center
Sat 03:45:38 PM 37.2142 -102.7525 247° West 422 486 34,000  Level Albuquerque Center
Sat 03:46:39 PM 37.1722 -102.8839 248° West 424 488 34,000  Level Albuquerque Center
Sat 03:47:41 PM 37.1275 -103.0169 247° West 431 496 34,000  Level Albuquerque Center
Sat 03:48:43 PM 37.0772 -103.1706 248° West 426 490 34,000  Level Albuquerque Center
Sat 03:49:44 PM 37.0311 -103.3031 246° West 430 495 34,000  Level Albuquerque Center
Sat 03:50:46 PM 36.9803 -103.4569 248° West 429 494 34,000  Level Albuquerque Center
Sat 03:51:48 PM 36.9353 -103.5911 247° West 431 496 34,000  Level Albuquerque Center
Sat 03:52:49 PM 36.8892 -103.7256 247° West 435 501 34,000  Level Albuquerque Center
Sat 03:53:51 PM 36.8369 -103.8806 247° West 433 498 34,000  Level Albuquerque Center
Sat 03:54:53 PM 36.7919 -104.0111 247° West 428 493 34,000  Level Albuquerque Center
Sat 03:55:55 PM 36.7381 -104.1639 246° West 428 493 34,000  Level Albuquerque Center
Sat 03:56:56 PM 36.6931 -104.2950 247° West 428 493 34,000  Level Albuquerque Center
Sat 03:57:58 PM 36.6483 -104.4219 246° West 423 487 34,000  Level Albuquerque Center
Sat 03:59:00 PM 36.5939 -104.5806 247° West 424 488 34,000  Level Albuquerque Center
Sat 04:00:02 PM 36.5469 -104.7133 246° West 420 483 34,000  Level Albuquerque Center
Sat 04:01:04 PM 36.5006 -104.8469 247° West 419 482 34,000  Level Albuquerque Center
Sat 04:02:05 PM 36.4547 -104.9789 247° West 416 479 34,000  Level Albuquerque Center
Sat 04:03:07 PM 36.4108 -105.1147 248° West 419 482 34,000  Level Albuquerque Center
Sat 04:04:09 PM 36.3653 -105.2464 247° West 417 480 34,000  Level Albuquerque Center
Sat 04:05:11 PM 36.3208 -105.3811 248° West 418 481 34,000  Level Albuquerque Center
Sat 04:06:12 PM 36.2656 -105.5389 247° West 423 487 34,000  Level Albuquerque Center
Sat 04:07:14 PM 36.2239 -105.6639 248° West 427 491 34,000  Level Albuquerque Center
Sat 04:08:16 PM 36.1775 -105.8003 247° West 430 495 34,000  Level Albuquerque Center
Sat 04:09:18 PM 36.1325 -105.9325 247° West 422 486 34,000  Level Albuquerque Center
Sat 04:10:20 PM 36.0872 -106.0628 247° West 416 479 34,000  Level Albuquerque Center
Sat 04:11:21 PM 36.0331 -106.2203 247° West 416 479 34,000  Level Albuquerque Center
Sat 04:12:23 PM 35.9889 -106.3522 248° West 418 481 34,000  Level Albuquerque Center
Sat 04:13:25 PM 35.9425 -106.4811 246° West 414 476 34,000  Level Albuquerque Center
Sat 04:14:27 PM 35.8931 -106.6256 247° West 422 486 34,000  Level Albuquerque Center
Sat 04:15:29 PM 35.8472 -106.7522 246° West 422 486 34,000  Level Albuquerque Center
Sat 04:16:30 PM 35.7964 -106.9003 247° West 421 484 34,000  Level Albuquerque Center
Sat 04:17:32 PM 35.7494 -107.0283 246° West 425 489 34,000  Level Albuquerque Center
Sat 04:18:34 PM 35.6972 -107.1764 247° West 424 488 34,000  Level Albuquerque Center
Sat 04:19:36 PM 35.6508 -107.3042 246° West 426 490 34,000  Level Albuquerque Center
Sat 04:20:37 PM 35.6039 -107.4314 246° West 426 490 34,000  Level Albuquerque Center
Sat 04:21:39 PM 35.5525 -107.5778 247° West 421 484 34,000  Level Albuquerque Center
Sat 04:22:41 PM 35.5067 -107.7036 246° West 420 483 34,000  Level Albuquerque Center
Sat 04:23:42 PM 35.4528 -107.8522 246° West 424 488 34,000  Level Albuquerque Center
Sat 04:24:44 PM 35.4064 -107.9792 246° West 425 489 34,000  Level Albuquerque Center
Sat 04:25:46 PM 35.3597 -108.1061 246° West 425 489 34,000  Level Albuquerque Center
Sat 04:26:47 PM 35.3050 -108.2528 245° Southwest 424 488 34,000  Level Albuquerque Center
Sat 04:27:49 PM 35.2597 -108.3786 246° West 422 486 34,000  Level Albuquerque Center
Sat 04:28:51 PM 35.2053 -108.5253 246° West 423 487 34,000  Level Albuquerque Center
Sat 04:29:52 PM 35.1578 -108.6525 245° Southwest 425 489 34,000  Level Albuquerque Center
Sat 04:30:54 PM 35.1108 -108.7769 245° Southwest 423 487 34,000  Level Albuquerque Center
Sat 04:31:55 PM 35.0558 -108.9231 245° Southwest 422 486 34,000  Level Albuquerque Center
Sat 04:32:57 PM 35.0075 -109.0494 245° Southwest 426 490 34,000  Level Albuquerque Center
Sat 04:33:59 PM 34.9531 -109.1950 246° West 422 486 34,000  Level Albuquerque Center
Sat 04:35:00 PM 34.9069 -109.3208 246° West 423 487 34,000  Level Albuquerque Center
Sat 04:36:02 PM 34.8542 -109.4672 246° West 423 487 34,000  Level Albuquerque Center
Sat 04:37:04 PM 34.8075 -109.5894 245° Southwest 417 480 34,000  Level Albuquerque Center
Sat 04:38:05 PM 34.7608 -109.7144 246° West 420 483 34,000  Level Albuquerque Center
Sat 04:39:07 PM 34.7067 -109.8611 246° West 425 489 34,000  Level Albuquerque Center
Sat 04:40:08 PM 34.6600 -109.9850 245° Southwest 423 487 34,000  Level Albuquerque Center
Sat 04:41:10 PM 34.6075 -110.1333 247° West 426 490 34,000 -194 Level Albuquerque Center
Sat 04:42:12 PM 34.5639 -110.2619 248° West 428 493 33,600 -634 Descending Albuquerque Center
Sat 04:43:13 PM 34.5119 -110.3825 242° Southwest 424 488 32,700 -1,415 Descending Albuquerque Center
Sat 04:44:15 PM 34.4597 -110.5369 248° West 433 498 30,700 -2,098 Descending Albuquerque Center
Sat 04:45:16 PM 34.4114 -110.6589 244° Southwest 407 468 28,400 -2,293 Descending Albuquerque Center
Sat 04:46:18 PM 34.3572 -110.7856 243° Southwest 423 487 26,000 -2,226 Descending Albuquerque Center
Sat 04:47:20 PM 34.2822 -110.8886 229° Southwest 409 471 23,800 -2,146 Descending Albuquerque Center
Sat 04:48:21 PM 34.2081 -110.9850 227° Southwest 397 457 21,600 -2,049 Descending Albuquerque Center
Sat 04:49:23 PM 34.1364 -111.0772 227° Southwest 383 441 19,600 -1,951 Descending Albuquerque Center
Sat 04:50:24 PM 34.0689 -111.1644 227° Southwest 365 420 17,600 -1,854 Descending Albuquerque Center
Sat 04:51:26 PM 34.0050 -111.2469 227° Southwest 346 398 15,800 -1,839 Descending Albuquerque Center
Sat 04:52:28 PM 33.9317 -111.3414 227° Southwest 323 372 13,800 -1,805 Descending Albuquerque Center
Sat 04:53:29 PM 33.8719 -111.4156 226° Southwest 309 356 12,100 -1,366 Descending Albuquerque Center
Sat 04:54:31 PM 33.8033 -111.4722 214° Southwest 299 344 11,000 -968 Descending Albuquerque Center
Sat 04:55:33 PM 33.7414 -111.5267 216° Southwest 279 321 10,100 -878 Descending Albuquerque Center
Sat 04:56:34 PM 33.6783 -111.5800 215° Southwest 276 318 9,200 -878 Descending Albuquerque Center
Sat 04:57:36 PM 33.6194 -111.6292 215° Southwest 257 296 8,300 -1,024 Descending Albuquerque Center
Sat 04:58:37 PM 33.5564 -111.6550 199° South 240 276 7,100 -878 Descending Albuquerque Center
Sat 04:59:39 PM 33.4978 -111.6794 199° South 214 246 6,500 -677 Descending Albuquerque Center
Sat 05:00:41 PM 33.4697 -111.7200 230° Southwest 187 215 5,700 -927 Descending Albuquerque Center
Sat 05:01:42 PM 33.4492 -111.7861 250° West 177 204 4,600 -976 Descending Albuquerque Center
Sat 05:02:44 PM 33.4408 -111.8417 260° West 174 200 3,700 -976 Descending Albuquerque Center
Sat 05:03:45 PM 33.4408 -111.8992 270° West 173 199 2,600 -811 Descending Albuquerque Center
Sat 05:05:49 PM 33.4403 -111.9878 270° West 141 162 1,200 -677 Descending Albuquerque Center
Sat 05:07:00 PM 33.4333 -112.0000 270° West  Level FlightAware Approximate

Login

Don't have an account? Register now (free) for customized features, flight alerts, and more!